sensor_id;sensor_type;location;lat;lon;timestamp;pressure;altitude;pressure_sealevel;temperature;humidity
68489;BME280;55481;48.764;8.936;2022-10-16T00:00:30;96830;;;14.9;82.5
68489;BME280;55481;48.764;8.936;2022-10-16T00:03:01;96830;;;14.9;82.5
68489;BME280;55481;48.764;8.936;2022-10-16T00:05:47;96830;;;14.9;82.5
68489;BME280;55481;48.764;8.936;2022-10-16T00:08:02;96840;;;14.9;82.5
68489;BME280;55481;48.764;8.936;2022-10-16T00:13:09;96830;;;14.9;82.5
68489;BME280;55481;48.764;8.936;2022-10-16T00:15:41;96830;;;15;82.5
68489;BME280;55481;48.764;8.936;2022-10-16T00:20:35;96840;;;14.9;82.5
68489;BME280;55481;48.764;8.936;2022-10-16T00:28:08;96840;;;14.8;82.5
68489;BME280;55481;48.764;8.936;2022-10-16T00:30:39;96840;;;14.8;82.5
68489;BME280;55481;48.764;8.936;2022-10-16T00:33:10;96840;;;14.9;82.5
68489;BME280;55481;48.764;8.936;2022-10-16T00:35:40;96840;;;14.9;82.5
68489;BME280;55481;48.764;8.936;2022-10-16T00:38:11;96850;;;14.9;82.5
68489;BME280;55481;48.764;8.936;2022-10-16T00:41:06;96850;;;14.9;82.5
68489;BME280;55481;48.764;8.936;2022-10-16T00:43:55;96840;;;15;82
68489;BME280;55481;48.764;8.936;2022-10-16T00:45:47;96830;;;15;82
68489;BME280;55481;48.764;8.936;2022-10-16T00:48:21;96840;;;14.9;82
68489;BME280;55481;48.764;8.936;2022-10-16T00:50:58;96840;;;14.9;82.5
68489;BME280;55481;48.764;8.936;2022-10-16T00:53:41;96840;;;15;82.5
68489;BME280;55481;48.764;8.936;2022-10-16T00:56:13;96850;;;15;82.5
68489;BME280;55481;48.764;8.936;2022-10-16T01:03:35;96840;;;14.9;82.5
68489;BME280;55481;48.764;8.936;2022-10-16T01:08:39;96860;;;14.9;82.5
68489;BME280;55481;48.764;8.936;2022-10-16T01:11:08;96860;;;15;82.5
68489;BME280;55481;48.764;8.936;2022-10-16T01:13:35;96850;;;15;82
68489;BME280;55481;48.764;8.936;2022-10-16T01:16:07;96850;;;14.9;82.5
68489;BME280;55481;48.764;8.936;2022-10-16T01:21:02;96850;;;15;82.5
68489;BME280;55481;48.764;8.936;2022-10-16T01:23:36;96850;;;15;82.5
68489;BME280;55481;48.764;8.936;2022-10-16T01:26:07;96840;;;15;82.5
68489;BME280;55481;48.764;8.936;2022-10-16T01:28:32;96840;;;15;82.5
68489;BME280;55481;48.764;8.936;2022-10-16T01:31:02;96850;;;15;82.5
68489;BME280;55481;48.764;8.936;2022-10-16T01:36:07;96860;;;15;82.5
68489;BME280;55481;48.764;8.936;2022-10-16T01:38:36;96850;;;15.1;82.5
68489;BME280;55481;48.764;8.936;2022-10-16T01:41:15;96850;;;15.1;82.5
68489;BME280;55481;48.764;8.936;2022-10-16T01:43:46;96840;;;15.1;82.5
68489;BME280;55481;48.764;8.936;2022-10-16T01:51:17;96840;;;15.2;82
68489;BME280;55481;48.764;8.936;2022-10-16T01:53:47;96840;;;15.2;82
68489;BME280;55481;48.764;8.936;2022-10-16T01:56:16;96830;;;15.2;82.5
68489;BME280;55481;48.764;8.936;2022-10-16T02:01:11;96840;;;15.2;82.5
68489;BME280;55481;48.764;8.936;2022-10-16T02:03:42;96840;;;15.2;82.5
68489;BME280;55481;48.764;8.936;2022-10-16T02:06:12;96840;;;15.2;82.5
68489;BME280;55481;48.764;8.936;2022-10-16T02:08:43;96850;;;15.2;82
68489;BME280;55481;48.764;8.936;2022-10-16T02:13:59;96850;;;15.2;82
68489;BME280;55481;48.764;8.936;2022-10-16T02:16:36;96850;;;15.2;82.5
68489;BME280;55481;48.764;8.936;2022-10-16T02:21:17;96850;;;15.2;82.5
68489;BME280;55481;48.764;8.936;2022-10-16T02:23:50;96850;;;15.2;82.5
68489;BME280;55481;48.764;8.936;2022-10-16T02:31:16;96840;;;15.1;82.5
68489;BME280;55481;48.764;8.936;2022-10-16T02:33:44;96850;;;15.1;82.5
68489;BME280;55481;48.764;8.936;2022-10-16T02:36:14;96840;;;15;82.5
68489;BME280;55481;48.764;8.936;2022-10-16T02:38:45;96850;;;15.1;82.5
68489;BME280;55481;48.764;8.936;2022-10-16T02:41:16;96850;;;15;82.5
68489;BME280;55481;48.764;8.936;2022-10-16T02:43:46;96850;;;15;82.5
68489;BME280;55481;48.764;8.936;2022-10-16T02:46:17;96860;;;15;82.5
68489;BME280;55481;48.764;8.936;2022-10-16T02:48:48;96860;;;14.9;82.5
68489;BME280;55481;48.764;8.936;2022-10-16T02:58:57;96860;;;14.8;83
68489;BME280;55481;48.764;8.936;2022-10-16T03:01:35;96860;;;14.8;83
68489;BME280;55481;48.764;8.936;2022-10-16T03:04:08;96860;;;14.8;83
68489;BME280;55481;48.764;8.936;2022-10-16T03:11:38;96860;;;14.8;83
68489;BME280;55481;48.764;8.936;2022-10-16T03:14:08;96870;;;14.9;82.5
68489;BME280;55481;48.764;8.936;2022-10-16T03:16:32;96860;;;14.8;82.5
68489;BME280;55481;48.764;8.936;2022-10-16T03:19:03;96870;;;14.8;82.5
68489;BME280;55481;48.764;8.936;2022-10-16T03:21:41;96860;;;14.8;82.5
68489;BME280;55481;48.764;8.936;2022-10-16T03:26:36;96870;;;14.6;82.5
68489;BME280;55481;48.764;8.936;2022-10-16T03:31:45;96870;;;14.5;83
68489;BME280;55481;48.764;8.936;2022-10-16T03:34:15;96880;;;14.5;83
68489;BME280;55481;48.764;8.936;2022-10-16T03:39:09;96870;;;14.4;83
68489;BME280;55481;48.764;8.936;2022-10-16T03:41:41;96860;;;14.4;83
68489;BME280;55481;48.764;8.936;2022-10-16T03:44:11;96870;;;14.4;83
68489;BME280;55481;48.764;8.936;2022-10-16T03:46:42;96870;;;14.4;83
68489;BME280;55481;48.764;8.936;2022-10-16T03:49:19;96880;;;14.4;83
68489;BME280;55481;48.764;8.936;2022-10-16T03:51:49;96870;;;14.4;83
68489;BME280;55481;48.764;8.936;2022-10-16T03:54:13;96870;;;14.3;83
68489;BME280;55481;48.764;8.936;2022-10-16T03:56:44;96870;;;14.3;83
68489;BME280;55481;48.764;8.936;2022-10-16T03:59:15;96870;;;14.3;83
68489;BME280;55481;48.764;8.936;2022-10-16T04:11:46;96860;;;14.2;83
68489;BME280;55481;48.764;8.936;2022-10-16T04:14:13;96870;;;14.3;83
68489;BME280;55481;48.764;8.936;2022-10-16T04:16:43;96870;;;14.3;82.5
68489;BME280;55481;48.764;8.936;2022-10-16T04:19:14;96860;;;14.4;82.5
68489;BME280;55481;48.764;8.936;2022-10-16T04:21:45;96870;;;14.4;82.5
68489;BME280;55481;48.764;8.936;2022-10-16T04:24:16;96860;;;14.6;82.5
68489;BME280;55481;48.764;8.936;2022-10-16T04:26:53;96870;;;14.6;82
68489;BME280;55481;48.764;8.936;2022-10-16T04:29:24;96870;;;14.5;82.5
68489;BME280;55481;48.764;8.936;2022-10-16T04:31:55;96880;;;14.5;82.5
68489;BME280;55481;48.764;8.936;2022-10-16T04:34:26;96880;;;14.5;82
68489;BME280;55481;48.764;8.936;2022-10-16T04:37:03;96880;;;14.4;82.5
68489;BME280;55481;48.764;8.936;2022-10-16T04:39:34;96880;;;14.3;82.5
68489;BME280;55481;48.764;8.936;2022-10-16T04:44:27;96890;;;14.3;83
68489;BME280;55481;48.764;8.936;2022-10-16T04:46:58;96890;;;14.2;83
68489;BME280;55481;48.764;8.936;2022-10-16T04:49:29;96900;;;14.2;83
68489;BME280;55481;48.764;8.936;2022-10-16T04:51:53;96910;;;14.2;83
68489;BME280;55481;48.764;8.936;2022-10-16T04:54:24;96910;;;14.2;83
68489;BME280;55481;48.764;8.936;2022-10-16T04:56:55;96910;;;14.2;83
68489;BME280;55481;48.764;8.936;2022-10-16T04:59:25;96910;;;14.2;83
68489;BME280;55481;48.764;8.936;2022-10-16T05:04:27;96920;;;14.1;83
68489;BME280;55481;48.764;8.936;2022-10-16T05:06:58;96910;;;14;83.5
68489;BME280;55481;48.764;8.936;2022-10-16T05:09:35;96910;;;14;83.5
68489;BME280;55481;48.764;8.936;2022-10-16T05:12:06;96900;;;14;83
68489;BME280;55481;48.764;8.936;2022-10-16T05:14:37;96900;;;14;83
68489;BME280;55481;48.764;8.936;2022-10-16T05:19:32;96900;;;13.9;83
68489;BME280;55481;48.764;8.936;2022-10-16T05:27:05;96900;;;13.8;83
68489;BME280;55481;48.764;8.936;2022-10-16T05:29:36;96910;;;13.8;83
68489;BME280;55481;48.764;8.936;2022-10-16T05:32:06;96910;;;13.7;83
68489;BME280;55481;48.764;8.936;2022-10-16T05:34:37;96920;;;13.6;83.5
68489;BME280;55481;48.764;8.936;2022-10-16T05:37:09;96910;;;13.6;83.5
68489;BME280;55481;48.764;8.936;2022-10-16T05:47:34;96930;;;13.7;83
68489;BME280;55481;48.764;8.936;2022-10-16T05:49:54;96930;;;13.8;83
68489;BME280;55481;48.764;8.936;2022-10-16T05:54:47;96930;;;13.8;82.5
68489;BME280;55481;48.764;8.936;2022-10-16T05:57:20;96940;;;13.8;83
68489;BME280;55481;48.764;8.936;2022-10-16T05:59:49;96940;;;13.7;83
68489;BME280;55481;48.764;8.936;2022-10-16T06:02:20;96940;;;13.7;83.5
68489;BME280;55481;48.764;8.936;2022-10-16T06:04:51;96940;;;13.7;83
68489;BME280;55481;48.764;8.936;2022-10-16T06:07:28;96940;;;13.8;83
68489;BME280;55481;48.764;8.936;2022-10-16T06:09:58;96950;;;13.7;83
68489;BME280;55481;48.764;8.936;2022-10-16T06:12:35;96950;;;13.8;83
68489;BME280;55481;48.764;8.936;2022-10-16T06:15:12;96950;;;13.9;83
68489;BME280;55481;48.764;8.936;2022-10-16T06:19:54;96940;;;14;82.5
68489;BME280;55481;48.764;8.936;2022-10-16T06:22:24;96950;;;14;82.5
68489;BME280;55481;48.764;8.936;2022-10-16T06:24:58;96940;;;13.9;83
68489;BME280;55481;48.764;8.936;2022-10-16T06:27:18;96940;;;14;82.5
68489;BME280;55481;48.764;8.936;2022-10-16T06:29:49;96950;;;13.9;83
68489;BME280;55481;48.764;8.936;2022-10-16T06:37:21;96960;;;14.2;82.5
68489;BME280;55481;48.764;8.936;2022-10-16T06:39:52;96970;;;14.3;82
68489;BME280;55481;48.764;8.936;2022-10-16T06:42:23;96970;;;14.3;82
68489;BME280;55481;48.764;8.936;2022-10-16T06:45:00;96970;;;14.4;82
68489;BME280;55481;48.764;8.936;2022-10-16T06:47:32;96970;;;14.4;81.5
68489;BME280;55481;48.764;8.936;2022-10-16T06:50:03;96970;;;14.4;82
68489;BME280;55481;48.764;8.936;2022-10-16T06:52:27;96970;;;14.5;82
68489;BME280;55481;48.764;8.936;2022-10-16T06:54:57;96980;;;14.6;82
68489;BME280;55481;48.764;8.936;2022-10-16T06:57:28;96990;;;14.8;81.5
68489;BME280;55481;48.764;8.936;2022-10-16T07:05:00;97000;;;14.9;81.5
68489;BME280;55481;48.764;8.936;2022-10-16T07:07:31;97000;;;15;81.5
68489;BME280;55481;48.764;8.936;2022-10-16T07:12:45;97010;;;15;81.5
68489;BME280;55481;48.764;8.936;2022-10-16T07:15:15;97010;;;15.1;81.5
68489;BME280;55481;48.764;8.936;2022-10-16T07:20:09;97030;;;15;82
68489;BME280;55481;48.764;8.936;2022-10-16T07:22:40;97030;;;14.9;82
68489;BME280;55481;48.764;8.936;2022-10-16T07:25:11;97040;;;14.9;82
68489;BME280;55481;48.764;8.936;2022-10-16T07:32:36;97020;;;15.2;81.5
68489;BME280;55481;48.764;8.936;2022-10-16T07:35:07;97030;;;15.3;81.5
68489;BME280;55481;48.764;8.936;2022-10-16T07:40:08;97030;;;15.5;81.5
68489;BME280;55481;48.764;8.936;2022-10-16T07:42:42;97040;;;15.5;81
68489;BME280;55481;48.764;8.936;2022-10-16T07:45:17;97040;;;15.7;81
68489;BME280;55481;48.764;8.936;2022-10-16T07:47:47;97040;;;15.8;81
68489;BME280;55481;48.764;8.936;2022-10-16T07:50:18;97040;;;15.8;81
68489;BME280;55481;48.764;8.936;2022-10-16T07:52:42;97040;;;15.9;81
68489;BME280;55481;48.764;8.936;2022-10-16T08:00:15;97040;;;16.3;80.5
68489;BME280;55481;48.764;8.936;2022-10-16T08:02:48;97050;;;16.6;80
68489;BME280;55481;48.764;8.936;2022-10-16T08:05:17;97050;;;16.6;80
68489;BME280;55481;48.764;8.936;2022-10-16T08:07:48;97040;;;16.8;80
68489;BME280;55481;48.764;8.936;2022-10-16T08:10:31;97040;;;17;79.5
68489;BME280;55481;48.764;8.936;2022-10-16T08:12:55;97050;;;17.1;79.5
68489;BME280;55481;48.764;8.936;2022-10-16T08:15:26;97050;;;17;80
68489;BME280;55481;48.764;8.936;2022-10-16T08:17:58;97060;;;16.9;80.5
68489;BME280;55481;48.764;8.936;2022-10-16T08:22:52;97080;;;17;80.5
68489;BME280;55481;48.764;8.936;2022-10-16T08:25:23;97080;;;17;80.5
68489;BME280;55481;48.764;8.936;2022-10-16T08:27:53;97080;;;17;81
68489;BME280;55481;48.764;8.936;2022-10-16T08:30:24;97070;;;17;81
68489;BME280;55481;48.764;8.936;2022-10-16T08:37:56;97080;;;17.1;81
68489;BME280;55481;48.764;8.936;2022-10-16T08:43:42;97090;;;17.2;80.5
68489;BME280;55481;48.764;8.936;2022-10-16T08:50:36;97100;;;17.1;81.5
68489;BME280;55481;48.764;8.936;2022-10-16T08:53:06;97100;;;17.1;81.5
68489;BME280;55481;48.764;8.936;2022-10-16T08:55:45;97090;;;17.1;81.5
68489;BME280;55481;48.764;8.936;2022-10-16T08:58:01;97090;;;17.2;81.5
68489;BME280;55481;48.764;8.936;2022-10-16T09:05:42;97060;;;17.8;80
68489;BME280;55481;48.764;8.936;2022-10-16T09:13:11;97100;;;17.7;80.5
68489;BME280;55481;48.764;8.936;2022-10-16T09:16:42;97100;;;17.7;80.5
68489;BME280;55481;48.764;8.936;2022-10-16T09:18:25;97100;;;17.8;80.5
68489;BME280;55481;48.764;8.936;2022-10-16T09:21:48;97100;;;17.8;80.5
68489;BME280;55481;48.764;8.936;2022-10-16T09:23:19;97100;;;18.1;80
68489;BME280;55481;48.764;8.936;2022-10-16T09:25:47;97090;;;18.1;79.5
68489;BME280;55481;48.764;8.936;2022-10-16T09:28:10;97100;;;18;80.5
68489;BME280;55481;48.764;8.936;2022-10-16T09:33:12;97100;;;18;80.5
68489;BME280;55481;48.764;8.936;2022-10-16T09:40:45;97100;;;18.2;80
68489;BME280;55481;48.764;8.936;2022-10-16T09:43:19;97110;;;18.4;79.5
68489;BME280;55481;48.764;8.936;2022-10-16T09:48:34;97100;;;18.8;79
68489;BME280;55481;48.764;8.936;2022-10-16T09:51:00;97100;;;19;78.5
68489;BME280;55481;48.764;8.936;2022-10-16T09:53:38;97110;;;19.4;78
68489;BME280;55481;48.764;8.936;2022-10-16T09:58:24;97120;;;19.6;78
68489;BME280;55481;48.764;8.936;2022-10-16T10:00:55;97120;;;19.7;78
68489;BME280;55481;48.764;8.936;2022-10-16T10:03:32;97120;;;19.8;78
68489;BME280;55481;48.764;8.936;2022-10-16T10:06:06;97120;;;20.2;77.5
68489;BME280;55481;48.764;8.936;2022-10-16T10:11:18;97130;;;20.6;76.5
68489;BME280;55481;48.764;8.936;2022-10-16T10:13:38;97130;;;20.2;78
68489;BME280;55481;48.764;8.936;2022-10-16T10:18:29;97130;;;20.2;78.5
68489;BME280;55481;48.764;8.936;2022-10-16T10:21:02;97130;;;20.3;78.5
68489;BME280;55481;48.764;8.936;2022-10-16T10:23:31;97130;;;20.4;78.5
68489;BME280;55481;48.764;8.936;2022-10-16T10:31:30;97130;;;20.7;78
68489;BME280;55481;48.764;8.936;2022-10-16T10:33:30;97130;;;20.9;77.5
68489;BME280;55481;48.764;8.936;2022-10-16T10:36:03;97140;;;21;77.5
68489;BME280;55481;48.764;8.936;2022-10-16T10:39:08;97130;;;21.1;77.5
68489;BME280;55481;48.764;8.936;2022-10-16T10:41:04;97130;;;21.2;77.5
68489;BME280;55481;48.764;8.936;2022-10-16T10:44:37;97140;;;21.1;77.5
68489;BME280;55481;48.764;8.936;2022-10-16T10:46:03;97130;;;20.9;78
68489;BME280;55481;48.764;8.936;2022-10-16T10:48:46;97130;;;20.8;78.5
68489;BME280;55481;48.764;8.936;2022-10-16T10:51:04;97130;;;20.7;78.5
68489;BME280;55481;48.764;8.936;2022-10-16T11:01:08;97130;;;20.9;78
68489;BME280;55481;48.764;8.936;2022-10-16T11:03:42;97130;;;20.9;78
68489;BME280;55481;48.764;8.936;2022-10-16T11:06:10;97130;;;21;127.5
68489;BME280;55481;48.764;8.936;2022-10-16T11:08:55;97130;;;21.1;77.5
68489;BME280;55481;48.764;8.936;2022-10-16T11:19:11;97140;;;21.5;77
68489;BME280;55481;48.764;8.936;2022-10-16T11:21:39;97140;;;21.5;77.5
68489;BME280;55481;48.764;8.936;2022-10-16T11:23:58;97130;;;21.6;77
68489;BME280;55481;48.764;8.936;2022-10-16T11:26:25;97130;;;21.7;77
68489;BME280;55481;48.764;8.936;2022-10-16T11:28:55;97130;;;21.8;77
68489;BME280;55481;48.764;8.936;2022-10-16T11:34:06;97110;;;23;74.5
68489;BME280;55481;48.764;8.936;2022-10-16T11:38:55;97120;;;22.8;75
68489;BME280;55481;48.764;8.936;2022-10-16T11:46:29;97110;;;22.7;76
68489;BME280;55481;48.764;8.936;2022-10-16T11:49:02;97110;;;22.7;76
68489;BME280;55481;48.764;8.936;2022-10-16T11:51:33;97110;;;22.8;75.5
68489;BME280;55481;48.764;8.936;2022-10-16T11:53:58;97110;;;22.4;77
68489;BME280;55481;48.764;8.936;2022-10-16T11:56:25;97120;;;22.2;77.5
68489;BME280;55481;48.764;8.936;2022-10-16T12:01:41;97110;;;22.1;77.5
68489;BME280;55481;48.764;8.936;2022-10-16T12:04:14;97120;;;21.7;78.5
68489;BME280;55481;48.764;8.936;2022-10-16T12:06:37;97120;;;21.6;79
68489;BME280;55481;48.764;8.936;2022-10-16T12:11:32;97100;;;22.2;77.5
68489;BME280;55481;48.764;8.936;2022-10-16T12:14:17;97100;;;22.3;77
68489;BME280;55481;48.764;8.936;2022-10-16T12:16:32;97110;;;22.7;76
68489;BME280;55481;48.764;8.936;2022-10-16T12:19:11;97110;;;23.5;74
68489;BME280;55481;48.764;8.936;2022-10-16T12:26:27;97110;;;26.9;66
68489;BME280;55481;48.764;8.936;2022-10-16T12:29:09;97110;;;27.4;65
68489;BME280;55481;48.764;8.936;2022-10-16T12:31:36;97110;;;27.8;64.5
68489;BME280;55481;48.764;8.936;2022-10-16T12:34:01;97110;;;27.5;65.5
68489;BME280;55481;48.764;8.936;2022-10-16T12:36:31;97120;;;26.5;67.5
68489;BME280;55481;48.764;8.936;2022-10-16T12:41:37;97120;;;24.3;74
68489;BME280;55481;48.764;8.936;2022-10-16T12:44:23;97130;;;23.6;76
68489;BME280;55481;48.764;8.936;2022-10-16T12:46:46;97130;;;23.3;77
68489;BME280;55481;48.764;8.936;2022-10-16T12:49:21;97130;;;23;77
68489;BME280;55481;48.764;8.936;2022-10-16T12:57:02;97130;;;23.5;76
68489;BME280;55481;48.764;8.936;2022-10-16T12:59:42;97130;;;23.2;76.5
68489;BME280;55481;48.764;8.936;2022-10-16T13:01:56;97130;;;23;77
68489;BME280;55481;48.764;8.936;2022-10-16T13:04:26;97130;;;23.2;76.5
68489;BME280;55481;48.764;8.936;2022-10-16T13:11:48;97130;;;22.8;77
68489;BME280;55481;48.764;8.936;2022-10-16T13:14:20;97130;;;22.7;77.5
68489;BME280;55481;48.764;8.936;2022-10-16T13:19:26;97150;;;22.4;78
68489;BME280;55481;48.764;8.936;2022-10-16T13:24:30;97140;;;22.6;77.5
68489;BME280;55481;48.764;8.936;2022-10-16T13:26:53;97140;;;22.5;77.5
68489;BME280;55481;48.764;8.936;2022-10-16T13:29:20;97140;;;22.4;77.5
68489;BME280;55481;48.764;8.936;2022-10-16T13:31:51;97140;;;22.6;77.5
68489;BME280;55481;48.764;8.936;2022-10-16T13:34:22;97140;;;23.7;75
68489;BME280;55481;48.764;8.936;2022-10-16T13:36:53;97130;;;24.1;74
68489;BME280;55481;48.764;8.936;2022-10-16T13:42:52;97140;;;23.3;76
68489;BME280;55481;48.764;8.936;2022-10-16T13:47:05;97140;;;22.5;78.5
68489;BME280;55481;48.764;8.936;2022-10-16T13:49:21;97140;;;22.5;78
68489;BME280;55481;48.764;8.936;2022-10-16T13:51:55;97140;;;22.2;78.5
68489;BME280;55481;48.764;8.936;2022-10-16T13:54:25;97140;;;22.1;78.5
68489;BME280;55481;48.764;8.936;2022-10-16T13:56:53;97140;;;22.1;78.5
68489;BME280;55481;48.764;8.936;2022-10-16T13:59:25;97140;;;22.1;78
68489;BME280;55481;48.764;8.936;2022-10-16T14:01:55;97140;;;22.1;78
68489;BME280;55481;48.764;8.936;2022-10-16T14:04:27;97130;;;23.8;74.5
68489;BME280;55481;48.764;8.936;2022-10-16T14:06:56;97130;;;24.4;72.5
68489;BME280;55481;48.764;8.936;2022-10-16T14:14:38;97150;;;22.6;77.5
68489;BME280;55481;48.764;8.936;2022-10-16T14:17:06;97150;;;22.9;76
68489;BME280;55481;48.764;8.936;2022-10-16T14:19:37;97150;;;22.6;76.5
68489;BME280;55481;48.764;8.936;2022-10-16T14:22:26;97150;;;22.4;77
68489;BME280;55481;48.764;8.936;2022-10-16T14:32:05;97160;;;22.5;76.5
68489;BME280;55481;48.764;8.936;2022-10-16T14:34:36;97160;;;22.6;76
68489;BME280;55481;48.764;8.936;2022-10-16T14:37:20;97150;;;23.2;75
68489;BME280;55481;48.764;8.936;2022-10-16T14:39:37;97160;;;23.6;74
68489;BME280;55481;48.764;8.936;2022-10-16T14:42:13;97150;;;24.1;72.5
68489;BME280;55481;48.764;8.936;2022-10-16T14:44:38;97160;;;23.7;73.5
68489;BME280;55481;48.764;8.936;2022-10-16T14:47:09;97160;;;23.2;74.5
68489;BME280;55481;48.764;8.936;2022-10-16T14:49:41;97160;;;22.8;76
68489;BME280;55481;48.764;8.936;2022-10-16T14:52:11;97160;;;22.6;76.5
68489;BME280;55481;48.764;8.936;2022-10-16T14:54:48;97160;;;22.5;76.5
68489;BME280;55481;48.764;8.936;2022-10-16T14:57:19;97160;;;22.4;77
68489;BME280;55481;48.764;8.936;2022-10-16T14:59:57;97160;;;22.2;77
68489;BME280;55481;48.764;8.936;2022-10-16T15:07:42;97160;;;21.6;78
68489;BME280;55481;48.764;8.936;2022-10-16T15:09:59;97160;;;21.4;78.5
68489;BME280;55481;48.764;8.936;2022-10-16T15:14:54;97160;;;21.4;78.5
68489;BME280;55481;48.764;8.936;2022-10-16T15:17:24;97170;;;21.4;78
68489;BME280;55481;48.764;8.936;2022-10-16T15:19:55;97160;;;21.5;77.5
68489;BME280;55481;48.764;8.936;2022-10-16T15:22:21;97160;;;21.5;77.5
68489;BME280;55481;48.764;8.936;2022-10-16T15:25:22;97160;;;21.5;77.5
68489;BME280;55481;48.764;8.936;2022-10-16T15:27:33;97160;;;21.9;76.5
68489;BME280;55481;48.764;8.936;2022-10-16T15:32:27;97170;;;21.7;76.5
68489;BME280;55481;48.764;8.936;2022-10-16T15:34:58;97170;;;21.4;77.5
68489;BME280;55481;48.764;8.936;2022-10-16T15:37:30;97170;;;21.1;78
68489;BME280;55481;48.764;8.936;2022-10-16T15:39:53;97170;;;20.8;78.5
68489;BME280;55481;48.764;8.936;2022-10-16T15:42:24;97170;;;20.5;79
68489;BME280;55481;48.764;8.936;2022-10-16T15:44:55;97170;;;20.4;79
68489;BME280;55481;48.764;8.936;2022-10-16T15:47:26;97180;;;20.2;79.5
68489;BME280;55481;48.764;8.936;2022-10-16T15:54:58;97190;;;19.9;79.5
68489;BME280;55481;48.764;8.936;2022-10-16T16:00:26;97190;;;19.6;79.5
68489;BME280;55481;48.764;8.936;2022-10-16T16:02:43;97190;;;19.5;80
68489;BME280;55481;48.764;8.936;2022-10-16T16:07:38;97180;;;19.3;80
68489;BME280;55481;48.764;8.936;2022-10-16T16:10:09;97180;;;19.1;80
68489;BME280;55481;48.764;8.936;2022-10-16T16:12:39;97180;;;18.9;80.5
68489;BME280;55481;48.764;8.936;2022-10-16T16:15:10;97180;;;18.7;80.5
68489;BME280;55481;48.764;8.936;2022-10-16T16:17:47;97190;;;18.6;80.5
68489;BME280;55481;48.764;8.936;2022-10-16T16:20:20;97190;;;18.6;80.5
68489;BME280;55481;48.764;8.936;2022-10-16T16:22:55;97190;;;18.5;80.5
68489;BME280;55481;48.764;8.936;2022-10-16T16:25:25;97190;;;18.3;81
68489;BME280;55481;48.764;8.936;2022-10-16T16:27:41;97180;;;18.2;81
68489;BME280;55481;48.764;8.936;2022-10-16T16:30:13;97190;;;18.1;81
68489;BME280;55481;48.764;8.936;2022-10-16T16:32:43;97190;;;18.1;81
68489;BME280;55481;48.764;8.936;2022-10-16T16:35:08;97200;;;18;81
68489;BME280;55481;48.764;8.936;2022-10-16T16:37:38;97200;;;17.9;81
68489;BME280;55481;48.764;8.936;2022-10-16T16:40:09;97210;;;17.8;81
68489;BME280;55481;48.764;8.936;2022-10-16T16:42:40;97210;;;17.8;81
68489;BME280;55481;48.764;8.936;2022-10-16T16:50:12;97220;;;17.5;81
68489;BME280;55481;48.764;8.936;2022-10-16T16:52:43;97220;;;17.4;81
68489;BME280;55481;48.764;8.936;2022-10-16T16:57:51;97230;;;17.1;81.5
68489;BME280;55481;48.764;8.936;2022-10-16T17:00:22;97220;;;17.1;81
68489;BME280;55481;48.764;8.936;2022-10-16T17:05:17;97230;;;16.9;81
68489;BME280;55481;48.764;8.936;2022-10-16T17:07:48;97240;;;16.9;81
68489;BME280;55481;48.764;8.936;2022-10-16T17:10:18;97240;;;16.8;81
68489;BME280;55481;48.764;8.936;2022-10-16T17:12:54;97240;;;16.7;81
68489;BME280;55481;48.764;8.936;2022-10-16T17:15:20;97240;;;16.7;81
68489;BME280;55481;48.764;8.936;2022-10-16T17:17:51;97250;;;16.6;81
68489;BME280;55481;48.764;8.936;2022-10-16T17:20:21;97250;;;16.6;81
68489;BME280;55481;48.764;8.936;2022-10-16T17:22:52;97250;;;16.5;81
68489;BME280;55481;48.764;8.936;2022-10-16T17:25:23;97250;;;16.4;81
68489;BME280;55481;48.764;8.936;2022-10-16T17:27:54;97260;;;16.4;81
68489;BME280;55481;48.764;8.936;2022-10-16T17:35:26;97260;;;16.3;81
68489;BME280;55481;48.764;8.936;2022-10-16T17:40:34;97270;;;16.2;81
68489;BME280;55481;48.764;8.936;2022-10-16T17:43:05;97260;;;16.1;81
68489;BME280;55481;48.764;8.936;2022-10-16T17:45:36;97260;;;16;81
68489;BME280;55481;48.764;8.936;2022-10-16T17:50:31;97270;;;15.9;81
68489;BME280;55481;48.764;8.936;2022-10-16T17:53:02;97270;;;15.8;81
68489;BME280;55481;48.764;8.936;2022-10-16T17:55:40;97270;;;15.8;81.5
68489;BME280;55481;48.764;8.936;2022-10-16T17:58:03;97280;;;15.7;81.5
68489;BME280;55481;48.764;8.936;2022-10-16T18:05:36;97280;;;15.5;81.5
68489;BME280;55481;48.764;8.936;2022-10-16T18:08:06;97280;;;15.5;81.5
68489;BME280;55481;48.764;8.936;2022-10-16T18:10:44;97280;;;15.4;81.5
68489;BME280;55481;48.764;8.936;2022-10-16T18:13:15;97280;;;15.4;81.5
68489;BME280;55481;48.764;8.936;2022-10-16T18:15:45;97280;;;15.3;81
68489;BME280;55481;48.764;8.936;2022-10-16T18:20:41;97290;;;15.3;81
68489;BME280;55481;48.764;8.936;2022-10-16T18:23:11;97290;;;15.3;81
68489;BME280;55481;48.764;8.936;2022-10-16T18:25:48;97300;;;15.3;81
68489;BME280;55481;48.764;8.936;2022-10-16T18:35:49;97320;;;15.1;81.5
68489;BME280;55481;48.764;8.936;2022-10-16T18:38:16;97320;;;15;81.5
68489;BME280;55481;48.764;8.936;2022-10-16T18:41:00;97320;;;14.9;81.5
68489;BME280;55481;48.764;8.936;2022-10-16T18:43:31;97320;;;14.9;81.5
68489;BME280;55481;48.764;8.936;2022-10-16T18:48:25;97320;;;14.8;81.5
68489;BME280;55481;48.764;8.936;2022-10-16T18:51:28;97330;;;14.8;81.5
68489;BME280;55481;48.764;8.936;2022-10-16T18:53:26;97320;;;14.8;81.5
68489;BME280;55481;48.764;8.936;2022-10-16T18:55:57;97320;;;14.8;81.5
68489;BME280;55481;48.764;8.936;2022-10-16T18:58:28;97330;;;14.8;81.5
68489;BME280;55481;48.764;8.936;2022-10-16T19:03:30;97330;;;14.8;81
68489;BME280;55481;48.764;8.936;2022-10-16T19:08:39;97330;;;15;80.5
68489;BME280;55481;48.764;8.936;2022-10-16T19:11:10;97330;;;15;80.5
68489;BME280;55481;48.764;8.936;2022-10-16T19:13:40;97330;;;15.1;80.5
68489;BME280;55481;48.764;8.936;2022-10-16T19:18:33;97340;;;15;80.5
68489;BME280;55481;48.764;8.936;2022-10-16T19:21:05;97340;;;14.9;81
68489;BME280;55481;48.764;8.936;2022-10-16T19:23:35;97350;;;14.8;81
68489;BME280;55481;48.764;8.936;2022-10-16T19:26:13;97350;;;14.6;81
68489;BME280;55481;48.764;8.936;2022-10-16T19:30:10;97350;;;14.6;82
68489;BME280;55481;48.764;8.936;2022-10-16T19:39:44;97350;;;14.5;82
68489;BME280;55481;48.764;8.936;2022-10-16T19:42:15;97360;;;14.5;81.5
68489;BME280;55481;48.764;8.936;2022-10-16T19:44:47;97360;;;14.4;82